createdAt,value
2016-09-28T00:01:03.465Z,1009.81
2016-09-28T00:02:13.446Z,1009.76
2016-09-28T00:03:23.737Z,1009.81
2016-09-28T00:04:34.034Z,1009.76
2016-09-28T00:05:44.057Z,1009.75
2016-09-28T00:06:54.355Z,1009.76
2016-09-28T00:08:04.377Z,1009.73
2016-09-28T00:09:13.737Z,1009.7
2016-09-28T00:10:23.413Z,1009.72
2016-09-28T00:11:33.417Z,1009.71
2016-09-28T00:12:43.094Z,1009.76
2016-09-28T00:13:52.760Z,1009.7
2016-09-28T00:15:03.059Z,1009.71
2016-09-28T00:16:13.363Z,1009.69
2016-09-28T00:17:23.343Z,1009.76
2016-09-28T00:18:33.361Z,1009.75
2016-09-28T00:19:43.341Z,1009.76
2016-09-28T00:20:53.311Z,1009.8
2016-09-28T00:22:03.280Z,1009.75
2016-09-28T00:23:13.271Z,1009.79
2016-09-28T00:24:23.567Z,1009.77
2016-09-28T00:25:33.549Z,1009.79
2016-09-28T00:26:43.542Z,1009.79
2016-09-28T00:27:53.879Z,1009.84
2016-09-28T00:29:04.168Z,1009.83
2016-09-28T00:30:14.157Z,1009.85
2016-09-28T00:31:24.478Z,1009.86
2016-09-28T00:32:34.460Z,1009.82
2016-09-28T00:33:44.128Z,1009.81
2016-09-28T00:34:53.809Z,1009.79
2016-09-28T00:36:03.473Z,1009.81
2016-09-28T00:37:13.458Z,1009.78
2016-09-28T00:38:23.764Z,1009.82
2016-09-28T00:39:33.747Z,1009.83
2016-09-28T00:40:44.040Z,1009.81
2016-09-28T00:41:53.717Z,1009.78
2016-09-28T00:43:03.700Z,1009.8
2016-09-28T00:44:13.377Z,1009.8
2016-09-28T00:45:23.679Z,1009.78
2016-09-28T00:46:33.660Z,1009.82
2016-09-28T00:47:43.953Z,1009.81
2016-09-28T00:48:53.937Z,1009.8
2016-09-28T00:50:03.913Z,1009.79
2016-09-28T00:51:14.203Z,1009.8
2016-09-28T00:52:24.493Z,1009.76
2016-09-28T00:53:34.470Z,1009.79
2016-09-28T00:54:44.462Z,1009.8
2016-09-28T00:55:54.749Z,1009.75
2016-09-28T00:57:04.413Z,1009.76
2016-09-28T00:58:14.712Z,1009.79
2016-09-28T00:59:25.024Z,1009.77
2016-09-28T01:00:34.993Z,1009.73
2016-09-28T01:01:44.962Z,1009.75
2016-09-28T01:02:55.249Z,1009.75
2016-09-28T01:04:05.548Z,1009.76
2016-09-28T01:05:15.848Z,1009.76
2016-09-28T01:06:26.145Z,1009.77
2016-09-28T01:07:36.126Z,1009.82
2016-09-28T01:08:46.421Z,1009.79
2016-09-28T01:09:56.720Z,1009.79
2016-09-28T01:11:07.017Z,1009.76
2016-09-28T01:12:17.288Z,1009.75
2016-09-28T01:13:27.263Z,1009.81
2016-09-28T01:14:37.239Z,1009.79
2016-09-28T01:15:47.215Z,1009.79
2016-09-28T01:16:57.203Z,1009.85
2016-09-28T01:18:07.186Z,1009.82
2016-09-28T01:19:17.482Z,1009.79
2016-09-28T01:20:27.771Z,1009.8
2016-09-28T01:21:38.066Z,1009.79
2016-09-28T01:22:48.350Z,1009.83
2016-09-28T01:23:58.641Z,1009.79
2016-09-28T01:25:08.935Z,1009.8
2016-09-28T01:26:18.917Z,1009.87
2016-09-28T01:27:28.883Z,1009.79
2016-09-28T01:28:38.241Z,1009.83
2016-09-28T01:29:48.216Z,1009.81
2016-09-28T01:30:57.894Z,1009.84
2016-09-28T01:32:07.864Z,1009.83
2016-09-28T01:33:18.147Z,1009.78
2016-09-28T01:34:28.439Z,1009.82
2016-09-28T01:35:38.400Z,1009.82
2016-09-28T01:36:48.385Z,1009.8
2016-09-28T01:37:58.389Z,1009.76
2016-09-28T01:39:07.735Z,1009.82
2016-09-28T01:40:18.007Z,1009.79
2016-09-28T01:41:27.668Z,1009.8
2016-09-28T01:42:37.639Z,1009.79
2016-09-28T01:43:47.926Z,1009.79
2016-09-28T01:44:57.905Z,1009.74
2016-09-28T01:46:08.186Z,1009.73
2016-09-28T01:47:18.152Z,1009.72
2016-09-28T01:48:28.132Z,1009.75
2016-09-28T01:49:37.490Z,1009.72
2016-09-28T01:50:47.165Z,1009.76
2016-09-28T01:51:56.848Z,1009.78
2016-09-28T01:53:07.135Z,1009.79
2016-09-28T01:54:17.422Z,1009.81
2016-09-28T01:55:27.713Z,1009.78
2016-09-28T01:56:37.671Z,1009.78
2016-09-28T01:57:47.642Z,1009.82
2016-09-28T01:58:57.923Z,1009.8
2016-09-28T02:00:08.203Z,1009.82
2016-09-28T02:01:17.562Z,1009.79
2016-09-28T02:02:27.867Z,1009.75
2016-09-28T02:03:37.849Z,1009.77
2016-09-28T02:04:47.825Z,1009.73
2016-09-28T02:05:57.487Z,1009.74
2016-09-28T02:07:07.780Z,1009.73
2016-09-28T02:08:18.065Z,1009.77
2016-09-28T02:09:27.736Z,1009.8
2016-09-28T02:10:38.020Z,1009.81
2016-09-28T02:11:48.306Z,1009.77
2016-09-28T02:12:58.586Z,1009.77
2016-09-28T02:14:08.249Z,1009.77
2016-09-28T02:15:17.935Z,1009.79
2016-09-28T02:16:27.603Z,1009.74
2016-09-28T02:17:37.889Z,1009.79
2016-09-28T02:18:48.200Z,1009.73
2016-09-28T02:19:58.522Z,1009.77
2016-09-28T02:21:08.495Z,1009.73
2016-09-28T02:22:18.176Z,1009.74
2016-09-28T02:23:28.468Z,1009.72
2016-09-28T02:24:38.451Z,1009.78
2016-09-28T02:25:48.430Z,1009.7
2016-09-28T02:26:58.402Z,1009.75
2016-09-28T02:28:08.709Z,1009.74
2016-09-28T02:29:18.377Z,1009.73
2016-09-28T02:30:28.666Z,1009.73
2016-09-28T02:31:38.654Z,1009.74
2016-09-28T02:32:48.963Z,1009.71
2016-09-28T02:33:58.933Z,1009.7
2016-09-28T02:35:09.235Z,1009.7
2016-09-28T02:36:19.226Z,1009.7
2016-09-28T02:37:29.517Z,1009.69
2016-09-28T02:38:39.500Z,1009.6
2016-09-28T02:39:49.476Z,1009.64
2016-09-28T02:40:59.764Z,1009.63
2016-09-28T02:42:09.734Z,1009.61
2016-09-28T02:43:20.028Z,1009.62
2016-09-28T02:44:30.312Z,1009.61
2016-09-28T02:45:39.985Z,1009.59
2016-09-28T02:46:49.962Z,1009.6
2016-09-28T02:48:00.249Z,1009.61
2016-09-28T02:49:10.230Z,1009.58
2016-09-28T02:50:20.533Z,1009.61
2016-09-28T02:51:30.831Z,1009.57
2016-09-28T02:52:41.120Z,1009.59
2016-09-28T02:53:51.401Z,1009.6
2016-09-28T02:55:01.685Z,1009.6
2016-09-28T02:56:11.656Z,1009.62
2016-09-28T02:57:21.945Z,1009.64
2016-09-28T02:58:32.233Z,1009.66
2016-09-28T02:59:42.523Z,1009.68
2016-09-28T03:00:52.805Z,1009.66
2016-09-28T03:32:39.834Z,1009.59
2016-09-28T03:33:50.106Z,1009.56
2016-09-28T03:35:00.072Z,1009.56
2016-09-28T03:36:10.025Z,1009.56
2016-09-28T03:37:20.013Z,1009.61
2016-09-28T03:38:29.668Z,1009.59
2016-09-28T03:39:39.654Z,1009.62
2016-09-28T03:40:49.632Z,1009.6
2016-09-28T03:41:59.599Z,1009.64
2016-09-28T03:43:09.279Z,1009.58
2016-09-28T03:44:19.250Z,1009.59
2016-09-28T03:45:29.221Z,1009.59
2016-09-28T03:46:39.500Z,1009.6
2016-09-28T03:47:49.503Z,1009.61
2016-09-28T03:48:59.493Z,1009.61
2016-09-28T03:50:08.845Z,1009.57
2016-09-28T03:51:19.121Z,1009.6
2016-09-28T03:52:29.095Z,1009.59
2016-09-28T03:53:38.781Z,1009.58
2016-09-28T03:54:48.752Z,1009.59
2016-09-28T03:55:59.049Z,1009.62
2016-09-28T03:57:09.329Z,1009.65
2016-09-28T03:58:18.988Z,1009.64
2016-09-28T03:59:28.960Z,1009.63
2016-09-28T04:00:39.255Z,1009.58
2016-09-28T04:01:49.546Z,1009.58
2016-09-28T04:02:59.525Z,1009.58
2016-09-28T04:04:09.500Z,1009.57
2016-09-28T04:05:19.172Z,1009.51
2016-09-28T04:06:29.158Z,1009.56
2016-09-28T04:07:39.132Z,1009.49
2016-09-28T04:08:49.410Z,1009.54
2016-09-28T04:09:59.722Z,1009.53
2016-09-28T04:11:09.705Z,1009.54
2016-09-28T04:12:19.996Z,1009.51
2016-09-28T04:13:29.973Z,1009.53
2016-09-28T04:14:40.254Z,1009.54
2016-09-28T04:15:49.926Z,1009.54
2016-09-28T04:16:58.964Z,1009.56
2016-09-28T04:18:09.250Z,1009.57
2016-09-28T04:19:19.551Z,1009.53
2016-09-28T04:20:29.836Z,1009.51
2016-09-28T04:21:39.514Z,1009.56
2016-09-28T04:22:49.816Z,1009.54
2016-09-28T04:23:59.785Z,1009.56
2016-09-28T04:25:10.070Z,1009.54
2016-09-28T04:26:20.062Z,1009.56
2016-09-28T04:27:29.722Z,1009.53
2016-09-28T04:28:39.082Z,1009.55
2016-09-28T04:29:49.070Z,1009.53
2016-09-28T04:30:59.353Z,1009.55
2016-09-28T04:32:09.326Z,1009.57
2016-09-28T04:33:18.988Z,1009.58
2016-09-28T04:34:29.274Z,1009.58
2016-09-28T04:35:39.239Z,1009.59
2016-09-28T04:36:49.528Z,1009.63
2016-09-28T04:37:59.514Z,1009.59
2016-09-28T04:39:09.177Z,1009.66
2016-09-28T04:40:19.467Z,1009.68
2016-09-28T04:41:29.754Z,1009.69
2016-09-28T04:42:40.046Z,1009.69
2016-09-28T04:43:50.332Z,1009.65
2016-09-28T04:45:00.304Z,1009.68
2016-09-28T04:46:10.596Z,1009.69
2016-09-28T04:47:20.287Z,1009.69
2016-09-28T04:48:30.570Z,1009.69
2016-09-28T04:49:40.558Z,1009.72
2016-09-28T04:50:50.225Z,1009.71
2016-09-28T04:52:00.200Z,1009.75
2016-09-28T04:53:10.186Z,1009.76
2016-09-28T04:54:20.506Z,1009.79
2016-09-28T04:55:30.167Z,1009.77
2016-09-28T04:56:40.452Z,1009.82
2016-09-28T04:57:50.746Z,1009.82
2016-09-28T04:59:01.024Z,1009.84
2016-09-28T05:00:11.034Z,1009.84
2016-09-28T05:01:21.318Z,1009.82
2016-09-28T05:02:31.305Z,1009.84
2016-09-28T05:03:41.590Z,1009.83
2016-09-28T05:04:51.883Z,1009.82
2016-09-28T05:06:02.200Z,1009.79
2016-09-28T05:07:11.860Z,1009.81
2016-09-28T05:08:21.218Z,1009.84
2016-09-28T05:09:31.210Z,1009.81
2016-09-28T05:10:41.497Z,1009.84
2016-09-28T05:11:51.476Z,1009.81
2016-09-28T05:13:01.479Z,1009.85
2016-09-28T05:14:11.762Z,1009.88
2016-09-28T05:15:21.753Z,1009.83
2016-09-28T05:16:31.709Z,1009.93
2016-09-28T05:17:41.991Z,1009.94
2016-09-28T05:18:51.959Z,1009.96
2016-09-28T05:20:01.936Z,1009.97
2016-09-28T05:21:11.921Z,1009.97
2016-09-28T05:22:22.208Z,1009.96
2016-09-28T05:23:32.214Z,1009.97
2016-09-28T05:24:42.146Z,1010.02
2016-09-28T05:25:52.109Z,1010.01
2016-09-28T05:27:01.469Z,1010.04
2016-09-28T05:28:11.445Z,1010.05
2016-09-28T05:29:21.735Z,1010
2016-09-28T05:30:32.026Z,1010.01
2016-09-28T05:31:42.016Z,1009.97
2016-09-28T05:32:51.688Z,1009.99
2016-09-28T05:34:01.975Z,1009.95
2016-09-28T05:35:12.261Z,1009.99
2016-09-28T05:36:22.544Z,1009.98
2016-09-28T05:37:32.534Z,1009.98
2016-09-28T05:38:42.837Z,1009.98
2016-09-28T05:39:53.125Z,1010.03
2016-09-28T05:41:03.106Z,1010.06
2016-09-28T05:42:13.082Z,1010.05
2016-09-28T05:43:23.358Z,1010.08
2016-09-28T05:44:33.036Z,1010.04
2016-09-28T05:45:43.324Z,1010.05
2016-09-28T05:46:53.604Z,1010.06
2016-09-28T05:48:03.585Z,1010.08
2016-09-28T05:49:13.870Z,1010.06
2016-09-28T05:50:24.167Z,1010.08
2016-09-28T05:51:34.446Z,1010.07
2016-09-28T05:52:44.726Z,1010.04
2016-09-28T05:53:55.016Z,1010.02
2016-09-28T05:55:05.300Z,1010.02
2016-09-28T05:56:15.294Z,1009.97
2016-09-28T05:57:25.279Z,1009.97
2016-09-28T05:58:35.273Z,1009.98
2016-09-28T05:59:45.557Z,1009.96
2016-09-28T06:00:55.524Z,1009.96
2016-09-28T06:02:05.507Z,1009.96
2016-09-28T06:03:15.487Z,1009.94
2016-09-28T06:04:25.467Z,1009.93
2016-09-28T06:05:35.442Z,1009.95
2016-09-28T06:06:45.722Z,1009.95
2016-09-28T06:07:56.021Z,1009.92
2016-09-28T06:09:06.010Z,1009.94
2016-09-28T06:10:15.978Z,1009.92
2016-09-28T06:11:25.954Z,1009.96
2016-09-28T06:12:35.935Z,1009.96
2016-09-28T06:13:45.906Z,1009.98
2016-09-28T06:14:55.579Z,1009.94
2016-09-28T06:16:05.571Z,1009.95
2016-09-28T06:17:15.859Z,1009.96
2016-09-28T06:18:25.839Z,1009.98
2016-09-28T06:19:36.131Z,1009.98
2016-09-28T06:20:46.412Z,1009.99
2016-09-28T06:21:56.385Z,1010.02
2016-09-28T06:23:06.060Z,1010.01
2016-09-28T06:24:16.023Z,1009.98
2016-09-28T06:25:25.999Z,1009.93
2016-09-28T06:26:35.698Z,1009.94
2016-09-28T06:27:45.663Z,1009.99
2016-09-28T06:28:55.641Z,1010
2016-09-28T06:30:04.997Z,1009.99
2016-09-28T06:31:14.667Z,1009.98
2016-09-28T06:32:24.649Z,1009.97
2016-09-28T06:33:34.937Z,1009.99
2016-09-28T06:34:44.909Z,1009.99
2016-09-28T06:35:54.570Z,1010.04
2016-09-28T06:37:04.569Z,1010.03
2016-09-28T06:38:14.869Z,1010.03
2016-09-28T06:39:24.864Z,1010.07
2016-09-28T06:40:34.850Z,1010.09
2016-09-28T06:41:45.137Z,1010.07
2016-09-28T06:42:55.126Z,1010.11
2016-09-28T06:44:05.112Z,1010.12
2016-09-28T06:45:15.406Z,1010.1
2016-09-28T06:46:25.413Z,1010.11
2016-09-28T06:47:35.707Z,1010.11
2016-09-28T06:48:46.004Z,1010.18
2016-09-28T06:49:55.984Z,1010.13
2016-09-28T06:51:06.291Z,1010.23
2016-09-28T06:52:16.583Z,1010.13
2016-09-28T06:53:26.874Z,1010.22
2016-09-28T06:54:36.550Z,1010.24
2016-09-28T06:55:46.229Z,1010.27
2016-09-28T06:56:55.605Z,1010.26
2016-09-28T06:58:05.584Z,1010.31
2016-09-28T06:59:15.579Z,1010.32
2016-09-28T07:00:25.881Z,1010.33
2016-09-28T07:01:36.180Z,1010.35
2016-09-28T07:02:46.165Z,1010.33
2016-09-28T07:03:56.445Z,1010.4
2016-09-28T07:05:06.423Z,1010.4
2016-09-28T07:06:16.719Z,1010.47
2016-09-28T07:07:27.021Z,1010.5
2016-09-28T07:08:36.727Z,1010.48
2016-09-28T07:09:47.023Z,1010.51
2016-09-28T07:10:57.017Z,1010.49
2016-09-28T07:12:06.694Z,1010.49
2016-09-28T07:13:16.980Z,1010.44
2016-09-28T07:14:26.967Z,1010.46
2016-09-28T07:15:36.953Z,1010.43
2016-09-28T07:16:46.940Z,1010.43
2016-09-28T07:17:56.305Z,1010.46
2016-09-28T07:19:06.287Z,1010.5
2016-09-28T07:20:16.574Z,1010.47
2016-09-28T07:21:26.567Z,1010.51
2016-09-28T07:22:36.858Z,1010.53
2016-09-28T07:23:46.832Z,1010.59
2016-09-28T07:24:56.806Z,1010.57
2016-09-28T07:26:07.088Z,1010.63
2016-09-28T07:27:16.755Z,1010.63
2016-09-28T07:28:27.050Z,1010.62
2016-09-28T07:29:37.043Z,1010.57
2016-09-28T07:30:47.042Z,1010.57
2016-09-28T07:31:56.726Z,1010.54
2016-09-28T07:33:06.707Z,1010.57
2016-09-28T07:34:16.691Z,1010.53
2016-09-28T07:35:26.077Z,1010.52
2016-09-28T07:36:36.049Z,1010.51
2016-09-28T07:37:46.024Z,1010.54
2016-09-28T07:38:56.022Z,1010.56
2016-09-28T07:40:06.009Z,1010.61
2016-09-28T07:41:16.000Z,1010.67
2016-09-28T07:42:26.017Z,1010.67
2016-09-28T07:43:35.689Z,1010.69
2016-09-28T07:44:45.686Z,1010.69
2016-09-28T07:45:55.998Z,1010.64
2016-09-28T07:47:05.980Z,1010.67
2016-09-28T07:48:15.976Z,1010.68
2016-09-28T07:49:26.267Z,1010.62
2016-09-28T07:50:36.253Z,1010.69
2016-09-28T07:51:46.242Z,1010.64
2016-09-28T07:52:55.921Z,1010.64
2016-09-28T07:54:05.594Z,1010.61
2016-09-28T07:55:15.896Z,1010.66
2016-09-28T07:56:26.199Z,1010.66
2016-09-28T07:57:36.495Z,1010.65
2016-09-28T07:58:46.167Z,1010.67
2016-09-28T07:59:56.141Z,1010.64
2016-09-28T08:01:06.134Z,1010.66
2016-09-28T08:02:16.117Z,1010.68
2016-09-28T08:03:26.440Z,1010.67
2016-09-28T08:04:36.740Z,1010.69
2016-09-28T08:05:46.417Z,1010.67
2016-09-28T08:06:56.715Z,1010.7
2016-09-28T08:08:06.724Z,1010.75
2016-09-28T08:09:17.017Z,1010.73
2016-09-28T08:10:26.380Z,1010.72
2016-09-28T08:11:36.370Z,1010.7
2016-09-28T08:12:46.377Z,1010.72
2016-09-28T08:13:56.656Z,1010.69
2016-09-28T08:15:06.325Z,1010.68
2016-09-28T08:16:16.617Z,1010.7
2016-09-28T08:17:26.604Z,1010.74
2016-09-28T08:18:36.594Z,1010.74
2016-09-28T08:19:46.891Z,1010.69
2016-09-28T08:20:56.576Z,1010.66
2016-09-28T08:22:06.576Z,1010.61
2016-09-28T08:23:16.877Z,1010.59
2016-09-28T08:24:27.173Z,1010.51
2016-09-28T08:25:37.156Z,1010.5
2016-09-28T08:26:47.458Z,1010.51
2016-09-28T08:27:56.819Z,1010.53
2016-09-28T08:29:07.122Z,1010.53
2016-09-28T08:30:17.403Z,1010.58
2016-09-28T08:31:27.081Z,1010.61
2016-09-28T08:32:36.442Z,1010.59
2016-09-28T08:33:46.428Z,1010.61
2016-09-28T08:34:56.410Z,1010.61
2016-09-28T08:36:06.717Z,1010.66
2016-09-28T08:37:17.021Z,1010.7
2016-09-28T08:38:27.006Z,1010.73
2016-09-28T08:39:37.300Z,1010.72
2016-09-28T08:40:47.582Z,1010.73
2016-09-28T08:41:57.895Z,1010.71
2016-09-28T08:43:07.893Z,1010.67
2016-09-28T08:44:18.183Z,1010.62
2016-09-28T08:45:27.255Z,1010.63
2016-09-28T08:46:37.237Z,1010.64
2016-09-28T08:47:47.562Z,1010.63
2016-09-28T08:48:57.244Z,1010.63
2016-09-28T08:50:07.541Z,1010.64
2016-09-28T08:51:16.908Z,1010.67
2016-09-28T08:52:26.915Z,1010.73
2016-09-28T08:53:36.906Z,1010.73
2016-09-28T08:54:46.613Z,1010.71
2016-09-28T08:55:56.891Z,1010.75
2016-09-28T08:57:06.272Z,1010.76
2016-09-28T08:58:15.988Z,1010.8
2016-09-28T08:59:26.273Z,1010.8
2016-09-28T09:00:36.562Z,1010.84
2016-09-28T09:01:46.556Z,1010.83
2016-09-28T09:02:56.861Z,1010.87
2016-09-28T09:04:07.157Z,1010.82
2016-09-28T09:05:16.826Z,1010.79
2016-09-28T09:06:26.496Z,1010.78
2016-09-28T09:07:35.882Z,1010.84
2016-09-28T09:08:45.877Z,1010.78
2016-09-28T09:09:55.852Z,1010.81
2016-09-28T09:11:05.523Z,1010.83
2016-09-28T09:12:15.824Z,1010.84
2016-09-28T09:13:26.056Z,1010.79
2016-09-28T09:14:36.047Z,1010.73
2016-09-28T09:15:45.744Z,1010.71
2016-09-28T09:16:56.022Z,1010.64
2016-09-28T09:18:06.017Z,1010.61
2016-09-28T09:19:16.305Z,1010.6
2016-09-28T09:20:25.387Z,1010.58
2016-09-28T09:21:35.087Z,1010.66
2016-09-28T09:22:45.401Z,1010.6
2016-09-28T09:23:55.096Z,1010.63
2016-09-28T09:25:04.771Z,1010.64
2016-09-28T09:26:15.065Z,1010.68
2016-09-28T09:27:24.741Z,1010.66
2016-09-28T09:28:35.038Z,1010.65
2016-09-28T09:29:45.335Z,1010.62
2016-09-28T09:30:55.633Z,1010.55
2016-09-28T09:32:05.945Z,1010.52
2016-09-28T09:33:15.950Z,1010.45
2016-09-28T09:34:26.246Z,1010.41
2016-09-28T09:35:36.540Z,1010.46
2016-09-28T09:36:46.841Z,1010.42
2016-09-28T09:37:57.127Z,1010.44
2016-09-28T09:39:07.428Z,1010.41
2016-09-28T09:40:17.110Z,1010.35
2016-09-28T09:41:27.413Z,1010.28
2016-09-28T09:42:37.395Z,1010.16
2016-09-28T09:43:47.715Z,1010.12
2016-09-28T09:44:57.697Z,1010.08
2016-09-28T09:46:07.379Z,1010.06
2016-09-28T09:47:17.678Z,1010.07
2016-09-28T09:48:27.648Z,1010.1
2016-09-28T09:49:37.354Z,1010.09
2016-09-28T09:50:47.642Z,1010.08
2016-09-28T09:51:57.628Z,1010.11
2016-09-28T09:53:07.614Z,1010.1
2016-09-28T09:54:16.662Z,1010.04
2016-09-28T09:55:26.970Z,1009.99
2016-09-28T09:56:37.281Z,1009.92
2016-09-28T09:57:47.590Z,1009.86
2016-09-28T09:58:57.897Z,1009.81
2016-09-28T10:00:07.569Z,1009.77
2016-09-28T10:01:17.897Z,1009.79
2016-09-28T10:02:27.912Z,1009.8
2016-09-28T10:03:38.200Z,1009.85
2016-09-28T10:04:48.492Z,1009.81
2016-09-28T10:05:58.173Z,1009.84
2016-09-28T10:07:08.184Z,1009.88
2016-09-28T10:08:18.188Z,1009.91
2016-09-28T10:09:28.200Z,1009.89
2016-09-28T10:10:38.549Z,1009.91
2016-09-28T10:11:49.053Z,1009.91
2016-09-28T10:12:59.029Z,1010
2016-09-28T10:14:09.021Z,1009.94
2016-09-28T10:15:19.373Z,1009.95
2016-09-28T10:16:29.696Z,1009.89
2016-09-28T10:17:40.020Z,1009.9
2016-09-28T10:18:50.363Z,1009.9
2016-09-28T10:20:00.374Z,1009.88
2016-09-28T10:21:10.706Z,1009.91
2016-09-28T10:22:20.727Z,1009.87
2016-09-28T10:23:31.040Z,1009.81
2016-09-28T10:24:41.265Z,1009.82
2016-09-28T10:25:50.977Z,1009.84
2016-09-28T10:27:00.969Z,1009.81
2016-09-28T10:28:10.994Z,1009.78
2016-09-28T10:29:20.997Z,1009.77
2016-09-28T10:30:31.294Z,1009.71
2016-09-28T10:31:40.680Z,1009.7
2016-09-28T10:32:50.366Z,1009.74
2016-09-28T10:34:00.677Z,1009.81
2016-09-28T10:35:10.677Z,1009.78
2016-09-28T10:36:20.679Z,1009.8
2016-09-28T10:37:30.688Z,1009.8
2016-09-28T10:38:40.687Z,1009.84
2016-09-28T10:39:50.697Z,1009.88
2016-09-28T10:41:00.687Z,1009.92
2016-09-28T10:42:10.684Z,1009.92
2016-09-28T10:43:20.673Z,1009.92
2016-09-28T10:44:30.755Z,1009.92
2016-09-28T10:45:41.066Z,1009.9
2016-09-28T10:46:51.392Z,1009.89
2016-09-28T10:48:01.393Z,1009.88
2016-09-28T10:49:11.087Z,1009.86
2016-09-28T10:50:21.108Z,1009.8
2016-09-28T10:51:31.120Z,1009.76
2016-09-28T10:52:41.107Z,1009.69
2016-09-28T10:53:51.119Z,1009.68
2016-09-28T10:55:01.106Z,1009.58
2016-09-28T10:56:11.105Z,1009.54
2016-09-28T10:57:21.386Z,1009.56
2016-09-28T10:58:31.392Z,1009.53
2016-09-28T10:59:41.387Z,1009.44
2016-09-28T11:00:51.693Z,1009.37
2016-09-28T11:02:01.687Z,1009.34
2016-09-28T11:03:11.688Z,1009.27
2016-09-28T11:04:21.690Z,1009.27
2016-09-28T11:05:31.716Z,1009.27
2016-09-28T11:06:42.041Z,1009.28
2016-09-28T11:07:52.372Z,1009.21
2016-09-28T11:09:02.381Z,1009.19
2016-09-28T11:10:12.676Z,1009.18
2016-09-28T11:11:23.009Z,1009.12
2016-09-28T11:12:33.324Z,1009.11
2016-09-28T11:13:43.654Z,1009.07
2016-09-28T11:14:53.355Z,1009.03
2016-09-28T11:16:03.545Z,1008.96
2016-09-28T11:17:14.081Z,1008.92
2016-09-28T11:18:24.430Z,1008.87
2016-09-28T11:19:34.773Z,1008.88
2016-09-28T11:20:44.805Z,1008.84
2016-09-28T11:21:55.160Z,1008.84
2016-09-28T11:23:05.506Z,1008.73
2016-09-28T11:24:15.842Z,1008.82
2016-09-28T11:25:25.845Z,1008.77
2016-09-28T11:26:35.830Z,1008.77
2016-09-28T11:27:45.201Z,1008.75
2016-09-28T11:28:55.509Z,1008.75
2016-09-28T11:30:05.510Z,1008.74
2016-09-28T11:31:15.803Z,1008.74
2016-09-28T11:32:25.496Z,1008.7
2016-09-28T11:33:35.719Z,1008.73
2016-09-28T11:34:46.029Z,1008.69
2016-09-28T11:35:56.024Z,1008.69
2016-09-28T11:37:06.028Z,1008.64
2016-09-28T11:38:16.329Z,1008.62
2016-09-28T11:39:26.025Z,1008.57
2016-09-28T11:40:36.346Z,1008.58
2016-09-28T11:41:46.038Z,1008.56
2016-09-28T11:42:56.035Z,1008.51
2016-09-28T11:44:06.347Z,1008.5
2016-09-28T11:45:15.743Z,1008.47
2016-09-28T11:46:25.744Z,1008.5
2016-09-28T11:47:36.046Z,1008.53
2016-09-28T11:48:45.718Z,1008.53
2016-09-28T11:49:56.044Z,1008.53
2016-09-28T11:51:06.037Z,1008.57
2016-09-28T11:52:16.374Z,1008.54
2016-09-28T11:53:26.678Z,1008.49
2016-09-28T11:54:36.677Z,1008.45
2016-09-28T11:55:46.998Z,1008.45
2016-09-28T11:56:57.300Z,1008.47
2016-09-28T11:58:06.988Z,1008.51
2016-09-28T11:59:16.669Z,1008.5
2016-09-28T12:00:26.960Z,1008.54
2016-09-28T12:01:37.264Z,1008.5
2016-09-28T12:02:47.558Z,1008.42
2016-09-28T12:03:57.840Z,1008.4
2016-09-28T12:05:07.834Z,1008.45
2016-09-28T12:06:18.156Z,1008.44
2016-09-28T12:07:28.456Z,1008.5
2016-09-28T12:08:38.434Z,1008.53
2016-09-28T12:09:48.759Z,1008.51
2016-09-28T12:10:58.750Z,1008.51
2016-09-28T12:12:08.742Z,1008.55
2016-09-28T12:13:18.437Z,1008.47
2016-09-28T12:14:28.439Z,1008.5
2016-09-28T12:15:37.802Z,1008.51
2016-09-28T12:16:47.783Z,1008.48
2016-09-28T12:17:58.070Z,1008.51
2016-09-28T12:19:08.069Z,1008.4
2016-09-28T12:20:18.380Z,1008.39
2016-09-28T12:21:28.387Z,1008.35
2016-09-28T12:22:38.682Z,1008.3
2016-09-28T12:23:48.673Z,1008.31
2016-09-28T12:24:58.656Z,1008.28
2016-09-28T12:26:08.674Z,1008.26
2016-09-28T12:27:18.056Z,1008.2
2016-09-28T12:28:28.052Z,1008.2
2016-09-28T12:29:38.408Z,1008.16
2016-09-28T12:30:48.391Z,1008.17
2016-09-28T12:31:58.691Z,1008.19
2016-09-28T12:33:08.677Z,1008.17
2016-09-28T12:34:18.376Z,1008.15
2016-09-28T12:35:27.762Z,1008.09
2016-09-28T12:36:38.079Z,1008.05
2016-09-28T12:37:48.394Z,1008.05
2016-09-28T12:38:58.075Z,1008.07
2016-09-28T12:40:08.377Z,1008.07
2016-09-28T12:41:18.695Z,1008.1
2016-09-28T12:42:28.997Z,1008.06
2016-09-28T12:43:39.323Z,1008.04
2016-09-28T12:44:49.335Z,1008.02
2016-09-28T12:45:59.327Z,1008
2016-09-28T12:47:09.018Z,1008.02
2016-09-28T12:48:19.005Z,1007.96
2016-09-28T12:49:29.001Z,1007.96
2016-09-28T12:50:39.302Z,1007.94
2016-09-28T12:51:48.974Z,1007.97
2016-09-28T12:52:58.982Z,1007.96
2016-09-28T12:54:08.976Z,1007.99
2016-09-28T12:55:18.980Z,1007.98
2016-09-28T12:56:29.293Z,1007.95
2016-09-28T12:57:39.313Z,1007.9
2016-09-28T12:58:49.646Z,1007.87
2016-09-28T12:59:59.941Z,1007.87
2016-09-28T13:01:09.934Z,1007.82
2016-09-28T13:02:19.929Z,1007.85
2016-09-28T13:03:30.231Z,1007.82
2016-09-28T13:04:40.228Z,1007.82
2016-09-28T13:05:50.521Z,1007.81
2016-09-28T13:07:00.836Z,1007.73
2016-09-28T13:08:10.859Z,1007.69
2016-09-28T13:09:20.829Z,1007.72
2016-09-28T13:10:30.828Z,1007.72
2016-09-28T13:11:41.164Z,1007.74
2016-09-28T13:12:51.158Z,1007.71
2016-09-28T13:14:01.467Z,1007.74
2016-09-28T13:15:11.775Z,1007.73
2016-09-28T13:16:22.066Z,1007.72
2016-09-28T13:17:31.753Z,1007.69
2016-09-28T13:18:42.048Z,1007.64
2016-09-28T13:19:51.726Z,1007.68
2016-09-28T13:21:02.249Z,1007.7
2016-09-28T13:22:12.252Z,1007.69
2016-09-28T13:23:22.236Z,1007.64
2016-09-28T13:24:32.223Z,1007.65
2016-09-28T13:25:41.905Z,1007.61
2016-09-28T13:26:51.598Z,1007.64
2016-09-28T13:28:01.894Z,1007.59
2016-09-28T13:29:12.199Z,1007.61
2016-09-28T13:30:22.493Z,1007.66
2016-09-28T13:31:32.492Z,1007.64
2016-09-28T13:32:42.494Z,1007.69
2016-09-28T13:33:52.805Z,1007.65
2016-09-28T13:35:02.803Z,1007.6
2016-09-28T13:36:12.835Z,1007.59
2016-09-28T13:37:22.837Z,1007.6
2016-09-28T13:38:32.832Z,1007.57
2016-09-28T13:39:43.126Z,1007.52
2016-09-28T13:40:53.092Z,1007.46
2016-09-28T13:42:03.091Z,1007.44
2016-09-28T13:43:13.089Z,1007.5
2016-09-28T13:44:23.388Z,1007.49
2016-09-28T13:45:33.385Z,1007.53
2016-09-28T13:46:43.706Z,1007.54
2016-09-28T13:47:54.006Z,1007.55
2016-09-28T13:49:04.310Z,1007.55
2016-09-28T13:50:14.309Z,1007.5
2016-09-28T13:51:24.293Z,1007.46
2016-09-28T13:52:34.317Z,1007.49
2016-09-28T13:53:44.632Z,1007.5
2016-09-28T13:54:54.936Z,1007.52
2016-09-28T13:56:04.629Z,1007.51
2016-09-28T13:57:14.625Z,1007.51
2016-09-28T13:58:24.633Z,1007.43
2016-09-28T13:59:34.633Z,1007.36
2016-09-28T14:00:44.950Z,1007.43
2016-09-28T14:01:54.943Z,1007.42
2016-09-28T14:03:04.642Z,1007.44
2016-09-28T14:04:14.951Z,1007.44
2016-09-28T14:05:24.930Z,1007.41
2016-09-28T14:06:35.239Z,1007.43
2016-09-28T14:07:45.542Z,1007.39
2016-09-28T14:08:55.559Z,1007.36
2016-09-28T14:10:05.867Z,1007.39
2016-09-28T14:11:15.889Z,1007.38
2016-09-28T14:12:26.204Z,1007.39
2016-09-28T14:13:36.511Z,1007.38
2016-09-28T14:14:46.188Z,1007.4
2016-09-28T14:15:55.591Z,1007.4
2016-09-28T14:17:05.593Z,1007.41
2016-09-28T14:18:15.587Z,1007.33
2016-09-28T14:19:25.916Z,1007.31
2016-09-28T14:20:36.226Z,1007.31
2016-09-28T14:21:46.203Z,1007.3
2016-09-28T14:22:56.193Z,1007.27
2016-09-28T14:24:06.515Z,1007.27
2016-09-28T14:25:16.227Z,1007.27
2016-09-28T14:26:26.203Z,1007.29
2016-09-28T14:27:35.889Z,1007.31
2016-09-28T14:28:46.182Z,1007.3
2016-09-28T14:29:56.488Z,1007.29
2016-09-28T14:31:06.471Z,1007.31
2016-09-28T14:32:16.778Z,1007.32
2016-09-28T14:33:27.074Z,1007.29
2016-09-28T14:34:37.420Z,1007.32
2016-09-28T14:35:47.719Z,1007.28
2016-09-28T14:36:58.024Z,1007.26
2016-09-28T14:38:08.327Z,1007.21
2016-09-28T14:39:18.628Z,1007.19
2016-09-28T14:40:28.615Z,1007.19
2016-09-28T14:41:38.607Z,1007.22